createdAt,value
2023-05-24T00:02:25.389Z,13.20
2023-05-24T00:05:01.775Z,13.32
2023-05-24T00:10:31.908Z,13.62
2023-05-24T00:13:06.991Z,13.43
2023-05-24T00:15:41.446Z,13.57
2023-05-24T00:21:04.651Z,14.73
2023-05-24T00:23:35.856Z,14.00
2023-05-24T00:26:08.160Z,12.80
2023-05-24T00:28:39.350Z,12.10
2023-05-24T00:31:10.537Z,12.10
2023-05-24T00:36:38.870Z,12.75
2023-05-24T00:39:14.646Z,11.25
2023-05-24T00:41:51.034Z,13.08
2023-05-24T00:44:44.256Z,12.80
2023-05-24T00:50:00.896Z,12.60
2023-05-24T00:52:33.290Z,12.98
2023-05-24T00:55:10.472Z,12.60
2023-05-24T00:57:46.215Z,16.25
2023-05-24T01:00:21.734Z,40.78
2023-05-24T01:02:53.559Z,20.00
2023-05-24T01:05:31.173Z,16.20
2023-05-24T01:14:34.201Z,17.02
2023-05-24T01:17:11.139Z,17.65
2023-05-24T01:20:05.227Z,17.23
2023-05-24T01:23:01.982Z,18.80
2023-05-24T01:25:56.340Z,17.37
2023-05-24T01:28:28.330Z,18.17
2023-05-24T01:30:59.996Z,17.75
2023-05-24T01:33:52.782Z,17.05
2023-05-24T01:36:25.935Z,17.10
2023-05-24T01:39:04.001Z,16.10
2023-05-24T01:41:49.547Z,17.25
2023-05-24T01:44:26.698Z,18.40
2023-05-24T01:47:08.936Z,14.65
2023-05-24T01:49:44.456Z,16.77
2023-05-24T01:52:30.655Z,14.65
2023-05-24T01:55:03.412Z,15.95
2023-05-24T01:57:37.479Z,16.15
2023-05-24T02:03:10.667Z,16.77
2023-05-24T02:05:46.963Z,14.80
2023-05-24T02:08:18.649Z,14.95
2023-05-24T02:10:50.110Z,16.07
2023-05-24T02:13:21.527Z,16.35
2023-05-24T02:15:54.640Z,15.20
2023-05-24T02:18:25.795Z,15.68
2023-05-24T02:23:57.945Z,14.80
2023-05-24T02:26:32.543Z,15.38
2023-05-24T02:29:08.171Z,14.47
2023-05-24T02:31:48.627Z,14.58
2023-05-24T02:34:19.449Z,13.95
2023-05-24T02:36:50.568Z,13.85
2023-05-24T02:39:22.053Z,13.43
2023-05-24T02:41:53.336Z,15.25
2023-05-24T02:44:24.594Z,15.55
2023-05-24T02:47:05.801Z,14.58
2023-05-24T02:49:40.450Z,14.00
2023-05-24T02:52:13.163Z,14.53
2023-05-24T02:54:44.384Z,14.80
2023-05-24T02:57:15.499Z,13.98
2023-05-24T02:59:46.630Z,14.00
2023-05-24T03:02:19.150Z,14.70
2023-05-24T03:04:50.765Z,14.47
2023-05-24T03:07:21.911Z,17.60
2023-05-24T03:09:55.773Z,13.83
2023-05-24T03:12:27.090Z,13.40
2023-05-24T03:14:58.253Z,13.32
2023-05-24T03:17:29.801Z,12.82
2023-05-24T03:20:01.088Z,11.53
2023-05-24T03:22:32.486Z,9.43
2023-05-24T03:25:03.691Z,10.53
2023-05-24T03:27:35.471Z,9.40
2023-05-24T03:30:11.531Z,9.98
2023-05-24T03:32:43.322Z,9.75
2023-05-24T03:35:14.559Z,9.88
2023-05-24T03:37:52.046Z,10.35
2023-05-24T03:40:24.296Z,9.88
2023-05-24T03:43:00.543Z,9.60
2023-05-24T03:48:11.597Z,10.63
2023-05-24T03:50:42.949Z,10.05
2023-05-24T03:53:14.371Z,10.45
2023-05-24T03:55:45.558Z,10.75
2023-05-24T03:58:21.140Z,10.75
2023-05-24T04:00:53.153Z,10.20
2023-05-24T04:03:24.458Z,9.30
2023-05-24T04:05:57.618Z,9.48
2023-05-24T04:08:30.152Z,9.88
2023-05-24T04:11:02.300Z,9.63
2023-05-24T04:13:33.716Z,10.38
2023-05-24T04:16:05.557Z,9.45
2023-05-24T04:18:37.483Z,9.55
2023-05-24T04:24:13.664Z,9.28
2023-05-24T04:26:40.531Z,8.83
2023-05-24T04:29:11.974Z,9.98
2023-05-24T04:31:48.332Z,10.38
2023-05-24T04:37:09.636Z,10.32
2023-05-24T04:39:42.170Z,10.30
2023-05-24T04:42:17.361Z,9.50
2023-05-24T04:44:48.655Z,9.58
2023-05-24T04:47:20.266Z,9.85
2023-05-24T04:56:28.287Z,10.48
2023-05-24T04:58:59.526Z,10.48
2023-05-24T05:04:19.809Z,10.50
2023-05-24T05:25:51.763Z,9.55
2023-05-24T05:28:23.081Z,9.10
2023-05-24T05:30:58.440Z,8.88
2023-05-24T05:33:29.543Z,9.23
2023-05-24T05:36:02.092Z,10.13
2023-05-24T05:38:33.520Z,9.08
2023-05-24T05:43:53.750Z,11.35
2023-05-24T05:46:25.926Z,10.08
2023-05-24T05:48:57.259Z,9.20
2023-05-24T05:51:35.458Z,10.35
2023-05-24T05:54:11.006Z,10.03
2023-05-24T05:56:43.528Z,10.27
2023-05-24T05:59:15.231Z,9.85
2023-05-24T06:01:48.334Z,9.90
2023-05-24T06:04:21.169Z,10.23
2023-05-24T06:06:53.377Z,9.93
2023-05-24T06:09:24.481Z,9.10
2023-05-24T06:11:55.627Z,9.90
2023-05-24T06:14:32.989Z,9.88
2023-05-24T06:17:04.092Z,9.95
2023-05-24T06:19:35.191Z,9.80
2023-05-24T06:22:06.654Z,10.95
2023-05-24T06:24:38.161Z,10.48
2023-05-24T06:33:34.552Z,8.73
2023-05-24T06:36:06.052Z,9.55
2023-05-24T06:38:37.844Z,9.43
2023-05-24T06:41:17.628Z,9.50
2023-05-24T06:43:48.505Z,9.08
2023-05-24T06:46:19.741Z,8.98
2023-05-24T06:48:51.080Z,9.63
2023-05-24T06:51:24.215Z,10.75
2023-05-24T06:53:54.807Z,9.95
2023-05-24T06:56:30.089Z,8.35
2023-05-24T06:59:05.253Z,8.95
2023-05-24T07:01:43.224Z,8.33
2023-05-24T07:04:18.059Z,7.30
2023-05-24T07:06:49.862Z,5.95
2023-05-24T07:09:22.772Z,7.60
2023-05-24T07:11:55.066Z,8.18
2023-05-24T07:14:27.192Z,7.47
2023-05-24T07:17:02.282Z,7.97
2023-05-24T07:19:34.952Z,7.92
2023-05-24T07:24:56.674Z,8.48
2023-05-24T07:27:27.932Z,8.63
2023-05-24T07:30:31.815Z,8.55
2023-05-24T07:32:43.319Z,8.40
2023-05-24T07:35:15.426Z,9.33
2023-05-24T07:37:46.640Z,8.90
2023-05-24T07:43:30.112Z,9.45
2023-05-24T07:46:01.826Z,9.05
2023-05-24T07:48:34.250Z,9.10
2023-05-24T07:51:05.403Z,9.13
2023-05-24T07:53:38.562Z,9.75
2023-05-24T07:56:18.021Z,9.00
2023-05-24T08:01:43.755Z,8.73
2023-05-24T08:04:23.118Z,8.30
2023-05-24T08:07:15.398Z,9.65
2023-05-24T08:09:52.736Z,8.55
2023-05-24T08:12:35.400Z,8.13
2023-05-24T08:18:00.619Z,4.42
2023-05-24T08:33:24.223Z,8.75
2023-05-24T08:38:51.224Z,8.65
2023-05-24T08:41:19.031Z,8.88
2023-05-24T08:42:10.869Z,8.35
2023-05-24T08:47:00.531Z,8.25
2023-05-24T08:49:49.133Z,9.13
2023-05-24T08:52:26.891Z,9.60
2023-05-24T08:55:06.528Z,8.05
2023-05-24T08:57:47.152Z,7.83
2023-05-24T09:00:20.616Z,11.85
2023-05-24T09:02:53.237Z,8.90
2023-05-24T09:05:24.542Z,9.53
2023-05-24T09:07:57.103Z,10.08
2023-05-24T09:10:45.003Z,9.08
2023-05-24T09:13:18.190Z,9.45
2023-05-24T09:15:59.164Z,9.68
2023-05-24T09:18:35.811Z,10.20
2023-05-24T09:21:07.129Z,10.00
2023-05-24T09:23:38.893Z,9.28
2023-05-24T09:26:16.169Z,8.85
2023-05-24T09:28:52.336Z,8.75
2023-05-24T09:31:27.787Z,9.13
2023-05-24T09:33:58.450Z,9.30
2023-05-24T09:36:37.197Z,10.60
2023-05-24T09:39:11.228Z,10.45
2023-05-24T09:41:44.242Z,10.50
2023-05-24T09:44:22.482Z,12.40
2023-05-24T09:46:57.441Z,10.13
2023-05-24T09:49:30.059Z,9.00
2023-05-24T09:52:34.029Z,9.78
2023-05-24T09:55:17.191Z,9.13
2023-05-24T09:57:54.488Z,8.73
2023-05-24T10:00:26.475Z,8.85
2023-05-24T10:03:13.719Z,8.80
2023-05-24T10:05:47.947Z,8.78
2023-05-24T10:08:23.616Z,8.73
2023-05-24T10:11:00.134Z,8.33
2023-05-24T10:16:09.472Z,7.53
2023-05-24T10:16:25.919Z,8.45
2023-05-24T10:18:49.561Z,8.18
2023-05-24T10:21:22.693Z,8.30
2023-05-24T10:23:56.369Z,8.03
2023-05-24T10:26:28.260Z,10.88
2023-05-24T10:29:07.307Z,8.85
2023-05-24T10:31:43.583Z,7.90
2023-05-24T10:34:15.256Z,8.53
2023-05-24T10:36:48.312Z,9.23
2023-05-24T10:39:20.681Z,9.95
2023-05-24T10:41:52.912Z,9.10
2023-05-24T10:44:24.329Z,8.20
2023-05-24T10:47:15.048Z,9.63
2023-05-24T10:49:54.151Z,7.50
2023-05-24T10:52:30.322Z,8.40
2023-05-24T10:55:10.829Z,8.05
2023-05-24T10:57:42.587Z,8.88
2023-05-24T11:03:07.201Z,10.15
2023-05-24T11:05:40.352Z,9.70
2023-05-24T11:08:11.818Z,8.90
2023-05-24T11:10:46.214Z,10.23
2023-05-24T11:13:17.406Z,9.48
2023-05-24T11:15:57.257Z,11.03
2023-05-24T11:18:28.540Z,9.85
2023-05-24T11:21:02.564Z,10.13
2023-05-24T11:23:36.623Z,10.43
2023-05-24T11:26:07.027Z,9.18
2023-05-24T11:28:40.426Z,9.70
2023-05-24T11:31:14.794Z,9.75
2023-05-24T11:33:46.154Z,10.75
2023-05-24T11:36:19.438Z,11.10
2023-05-24T11:38:51.256Z,11.93
2023-05-24T11:41:23.154Z,12.33
2023-05-24T11:43:54.290Z,13.45
2023-05-24T11:46:29.369Z,13.38
2023-05-24T11:49:09.432Z,12.45
2023-05-24T11:51:54.310Z,12.25
2023-05-24T11:54:26.137Z,12.18
2023-05-24T11:56:58.050Z,10.90
2023-05-24T11:59:49.008Z,11.30
2023-05-24T12:02:37.162Z,12.03
2023-05-24T12:05:13.649Z,15.68
2023-05-24T12:10:43.369Z,15.13
2023-05-24T12:22:38.720Z,18.92
2023-05-24T12:25:11.298Z,17.90
2023-05-24T12:27:46.287Z,16.85
2023-05-24T12:30:27.538Z,16.87
2023-05-24T12:32:59.303Z,15.45
2023-05-24T12:35:33.667Z,14.55
2023-05-24T12:38:05.025Z,16.20
2023-05-24T12:40:36.675Z,15.80
2023-05-24T12:43:08.657Z,15.98
2023-05-24T12:45:39.924Z,17.42
2023-05-24T12:48:11.071Z,16.30
2023-05-24T12:50:42.684Z,16.07
2023-05-24T12:53:14.115Z,18.45
2023-05-24T12:58:38.825Z,16.55
2023-05-24T13:01:14.722Z,18.27
2023-05-24T13:03:46.074Z,21.62
2023-05-24T13:06:17.217Z,20.02
2023-05-24T13:08:50.104Z,19.42
2023-05-24T13:11:21.562Z,18.95
2023-05-24T13:13:52.923Z,16.30
2023-05-24T13:16:24.146Z,14.65
2023-05-24T13:19:16.590Z,13.83
2023-05-24T13:22:21.258Z,14.53
2023-05-24T13:25:15.036Z,13.22
2023-05-24T13:27:46.694Z,13.70
2023-05-24T13:30:18.685Z,13.15
2023-05-24T13:32:50.155Z,13.53
2023-05-24T13:35:21.619Z,13.90
2023-05-24T13:37:59.362Z,13.65
2023-05-24T13:40:30.093Z,15.18
2023-05-24T13:43:02.233Z,15.03
2023-05-24T13:45:37.504Z,13.80
2023-05-24T13:48:08.974Z,13.68
2023-05-24T13:50:41.773Z,12.93
2023-05-24T13:53:13.575Z,12.95
2023-05-24T13:55:58.057Z,12.13
2023-05-24T13:58:29.087Z,11.05
2023-05-24T14:01:00.430Z,10.28
2023-05-24T14:03:31.920Z,9.20
2023-05-24T14:06:03.252Z,10.60
2023-05-24T14:08:34.513Z,9.30
2023-05-24T14:16:17.121Z,8.48
2023-05-24T14:18:49.760Z,8.43
2023-05-24T14:21:23.734Z,8.58
2023-05-24T14:24:00.147Z,9.43
2023-05-24T14:26:40.687Z,9.43
2023-05-24T14:29:45.565Z,8.45
2023-05-24T14:32:14.556Z,8.40
2023-05-24T14:34:46.189Z,8.10
2023-05-24T14:37:19.859Z,7.78
2023-05-24T14:39:51.194Z,7.72
2023-05-24T14:42:39.854Z,8.05
2023-05-24T14:45:39.133Z,7.05
2023-05-24T14:48:42.460Z,7.85
2023-05-24T14:51:16.657Z,8.83
2023-05-24T14:53:48.576Z,8.98
2023-05-24T14:56:19.338Z,8.88
2023-05-24T14:58:51.583Z,8.73
2023-05-24T15:01:38.105Z,11.48
2023-05-24T15:04:11.265Z,10.03
2023-05-24T15:06:42.860Z,9.70
2023-05-24T15:09:23.954Z,9.28
2023-05-24T15:11:55.399Z,9.68
2023-05-24T15:14:26.633Z,10.40
2023-05-24T15:16:58.123Z,10.18
2023-05-24T15:19:32.006Z,10.85
2023-05-24T15:22:03.252Z,10.23
2023-05-24T15:24:34.832Z,10.13
2023-05-24T15:27:06.685Z,10.45
2023-05-24T15:32:55.894Z,10.13
2023-05-24T15:35:31.899Z,10.08
2023-05-24T15:41:13.607Z,9.98
2023-05-24T15:43:44.837Z,8.45
2023-05-24T15:46:16.469Z,8.28
2023-05-24T15:52:13.592Z,6.65
2023-05-24T16:01:38.889Z,4.78
2023-05-24T16:04:14.569Z,3.62
2023-05-24T16:06:46.232Z,3.30
2023-05-24T16:09:17.379Z,3.60
2023-05-24T16:11:53.159Z,3.30
2023-05-24T16:14:24.377Z,3.30
2023-05-24T16:16:57.381Z,3.30
2023-05-24T16:19:28.308Z,3.65
2023-05-24T16:21:59.401Z,3.15
2023-05-24T16:24:36.098Z,3.60
2023-05-24T16:27:08.217Z,3.17
2023-05-24T16:29:39.617Z,3.58
2023-05-24T16:32:10.948Z,3.65
2023-05-24T16:34:56.095Z,3.22
2023-05-24T16:37:15.525Z,3.33
2023-05-24T16:39:46.672Z,4.22
2023-05-24T16:42:17.965Z,3.98
2023-05-24T16:44:49.266Z,4.10
2023-05-24T16:47:20.594Z,3.85
2023-05-24T16:49:51.885Z,3.95
2023-05-24T16:52:25.466Z,3.90
2023-05-24T16:54:56.628Z,5.10
2023-05-24T16:57:52.771Z,3.70
2023-05-24T17:02:55.834Z,4.60
2023-05-24T17:05:27.250Z,5.28
2023-05-24T17:07:58.683Z,4.75
2023-05-24T17:10:29.907Z,5.17
2023-05-24T17:13:02.354Z,5.05
2023-05-24T17:15:33.751Z,5.42
2023-05-24T17:18:05.251Z,4.67
2023-05-24T17:20:36.838Z,4.37
2023-05-24T17:23:08.096Z,4.80
2023-05-24T17:25:39.383Z,5.10
2023-05-24T17:28:13.658Z,5.50
2023-05-24T17:30:45.009Z,5.35
2023-05-24T17:33:16.684Z,4.42
2023-05-24T17:38:41.245Z,5.35
2023-05-24T17:41:24.815Z,4.47
2023-05-24T17:44:04.965Z,4.50
2023-05-24T17:46:30.495Z,4.92
2023-05-24T17:49:02.238Z,4.70
2023-05-24T17:51:35.196Z,4.35
2023-05-24T17:54:06.362Z,4.33
2023-05-24T17:57:06.939Z,4.12
2023-05-24T17:59:37.846Z,4.62
2023-05-24T18:02:09.885Z,4.40
2023-05-24T18:04:41.178Z,4.33
2023-05-24T18:07:14.874Z,4.15
2023-05-24T18:09:52.546Z,4.62
2023-05-24T18:14:56.332Z,4.10
2023-05-24T18:17:28.782Z,4.37
2023-05-24T18:20:02.012Z,4.75
2023-05-24T18:22:41.986Z,4.83
2023-05-24T18:25:16.006Z,4.20
2023-05-24T18:27:50.048Z,5.20
2023-05-24T18:30:24.053Z,4.60
2023-05-24T18:33:07.194Z,3.77
2023-05-24T18:35:31.690Z,4.20
2023-05-24T18:38:05.165Z,4.42
2023-05-24T18:40:40.172Z,4.20
2023-05-24T18:43:18.580Z,4.67
2023-05-24T18:45:52.081Z,4.20
2023-05-24T18:48:22.414Z,3.92
2023-05-24T18:50:59.571Z,4.35
2023-05-24T18:53:31.944Z,3.65
2023-05-24T18:56:03.175Z,4.30
2023-05-24T18:58:34.745Z,4.20
2023-05-24T19:01:14.673Z,3.98
2023-05-24T19:03:46.656Z,4.60
2023-05-24T19:06:21.496Z,4.58
2023-05-24T19:08:52.743Z,4.97
2023-05-24T19:11:24.371Z,4.55
2023-05-24T19:13:56.837Z,4.60
2023-05-24T19:16:28.239Z,5.03
2023-05-24T19:18:59.714Z,4.80
2023-05-24T19:21:31.570Z,4.22
2023-05-24T19:24:02.879Z,4.28
2023-05-24T19:26:35.717Z,4.10
2023-05-24T19:29:10.177Z,3.98
2023-05-24T19:31:41.776Z,4.37
2023-05-24T19:34:24.500Z,4.55
2023-05-24T19:36:56.135Z,4.75
2023-05-24T19:42:52.081Z,4.45
2023-05-24T19:45:21.848Z,4.50
2023-05-24T19:47:53.119Z,4.90
2023-05-24T19:50:31.581Z,4.62
2023-05-24T19:53:07.646Z,4.67
2023-05-24T19:55:39.573Z,4.50
2023-05-24T19:58:13.201Z,4.87
2023-05-24T20:00:46.364Z,4.70
2023-05-24T20:03:18.684Z,4.12
2023-05-24T20:05:51.297Z,4.22
2023-05-24T20:08:22.777Z,4.47
2023-05-24T20:10:54.028Z,4.30
2023-05-24T20:13:25.487Z,4.00
2023-05-24T20:15:58.067Z,4.20
2023-05-24T20:18:29.322Z,4.08
2023-05-24T20:21:04.983Z,4.20
2023-05-24T20:23:39.343Z,3.72
2023-05-24T20:26:10.503Z,4.03
2023-05-24T20:28:44.580Z,4.22
2023-05-24T20:31:16.123Z,3.67
2023-05-24T20:34:12.578Z,3.92
2023-05-24T20:36:44.123Z,4.12
2023-05-24T20:39:17.196Z,4.90
2023-05-24T20:41:51.620Z,4.70
2023-05-24T20:44:28.095Z,4.00
2023-05-24T20:47:01.835Z,4.15
2023-05-24T20:49:35.547Z,4.20
2023-05-24T20:52:13.009Z,4.33
2023-05-24T20:54:49.513Z,4.87
2023-05-24T20:57:21.961Z,5.12
2023-05-24T20:59:57.625Z,4.72
2023-05-24T21:02:59.297Z,5.00
2023-05-24T21:05:06.642Z,5.35
2023-05-24T21:07:39.185Z,4.85
2023-05-24T21:10:11.459Z,5.45
2023-05-24T21:12:45.226Z,4.87
2023-05-24T21:15:15.342Z,4.95
2023-05-24T21:17:46.534Z,5.17
2023-05-24T21:20:18.002Z,5.05
2023-05-24T21:22:51.849Z,5.67
2023-05-24T21:25:23.948Z,5.20
2023-05-24T21:27:55.367Z,4.87
2023-05-24T21:30:29.754Z,4.92
2023-05-24T21:33:01.033Z,5.00
2023-05-24T21:35:38.028Z,5.12
2023-05-24T21:38:08.051Z,5.08
2023-05-24T21:40:39.276Z,5.08
2023-05-24T21:43:11.862Z,5.33
2023-05-24T21:45:43.564Z,5.47
2023-05-24T21:48:15.269Z,5.83
2023-05-24T21:50:46.712Z,5.45
2023-05-24T21:53:17.962Z,5.95
2023-05-24T21:55:49.079Z,5.58
2023-05-24T21:58:20.306Z,6.08
2023-05-24T22:00:52.536Z,6.83
2023-05-24T22:03:23.941Z,6.97
2023-05-24T22:05:55.333Z,6.22
2023-05-24T22:08:26.659Z,6.58
2023-05-24T22:10:58.115Z,6.50
2023-05-24T22:13:36.029Z,7.30
2023-05-24T22:16:08.004Z,6.92
2023-05-24T22:18:39.291Z,6.83
2023-05-24T22:21:10.725Z,7.72
2023-05-24T22:23:45.410Z,7.85
2023-05-24T22:26:18.034Z,7.85
2023-05-24T22:29:00.992Z,8.45
2023-05-24T22:34:31.459Z,7.60
2023-05-24T22:37:02.953Z,7.53
2023-05-24T22:39:34.190Z,7.10
2023-05-24T22:42:05.523Z,8.53
2023-05-24T22:44:45.652Z,7.33
2023-05-24T22:47:23.453Z,7.28
2023-05-24T22:49:57.785Z,7.65
2023-05-24T22:52:29.147Z,7.53
2023-05-24T22:55:00.610Z,6.80
2023-05-24T22:57:32.077Z,7.30
2023-05-24T23:00:05.062Z,6.83
2023-05-24T23:02:37.983Z,7.00
2023-05-24T23:05:12.561Z,7.90
2023-05-24T23:07:43.771Z,7.45
2023-05-24T23:10:18.884Z,7.10
2023-05-24T23:12:50.299Z,7.20
2023-05-24T23:15:29.397Z,8.10
2023-05-24T23:17:54.727Z,7.55
2023-05-24T23:20:41.296Z,7.20
2023-05-24T23:25:46.428Z,7.58
2023-05-24T23:28:17.840Z,7.72
2023-05-24T23:30:49.263Z,8.40
2023-05-24T23:33:20.501Z,7.75
2023-05-24T23:35:51.868Z,8.10
2023-05-24T23:38:23.221Z,8.10
2023-05-24T23:40:54.370Z,7.83
2023-05-24T23:43:25.551Z,7.97
2023-05-24T23:45:56.937Z,8.88
2023-05-24T23:48:28.294Z,9.13
2023-05-24T23:50:59.959Z,9.38
2023-05-24T23:53:31.224Z,9.53
2023-05-24T23:56:02.562Z,11.60
2023-05-24T23:58:34.935Z,10.90
